Time;durP1;ratioP1;P1;durP2;ratioP2;P2;SDS_P1;SDS_P2;PMS_P1;PMS_P2;Temp;Humidity;BMP_temperature;BMP_pressure;BME280_temperature;BME280_humidity;BME280_pressure;Samples;Min_cycle;Max_cycle;Signal;HPM_P1;HPM_P2
2021/05/01 00:01:06;;;;;;;41.40;36.43;;;8.60;99.90;;;;;;4976763;28;20967;-65
2021/05/01 00:03:32;;;;;;;42.30;37.80;;;8.60;99.90;;;;;;4976436;28;20482;-65
2021/05/01 00:05:59;;;;;;;46.97;40.50;;;8.70;99.90;;;;;;4977249;28;20442;-66
2021/05/01 00:08:28;;;;;;;42.23;36.53;;;8.80;99.90;;;;;;4977112;28;20466;-65
2021/05/01 00:10:55;;;;;;;42.67;38.10;;;8.80;99.90;;;;;;4977075;28;20454;-65
2021/05/01 00:13:21;;;;;;;45.57;38.93;;;8.90;99.90;;;;;;4976922;28;20447;-64
2021/05/01 00:15:48;;;;;;;48.53;40.27;;;8.90;99.90;;;;;;4976841;28;20462;-64
2021/05/01 00:18:14;;;;;;;46.63;40.87;;;8.90;99.90;;;;;;4976574;28;20458;-65
2021/05/01 00:20:40;;;;;;;47.10;41.70;;;8.70;99.90;;;;;;4976811;28;20492;-65
2021/05/01 00:23:06;;;;;;;48.57;41.97;;;8.70;99.90;;;;;;4976775;28;20533;-65
2021/05/01 00:25:33;;;;;;;50.07;42.70;;;8.70;99.90;;;;;;4976656;28;20492;-66
2021/05/01 00:27:59;;;;;;;47.27;41.93;;;8.70;99.90;;;;;;4976587;28;20463;-66
2021/05/01 00:30:26;;;;;;;52.60;45.93;;;8.70;99.90;;;;;;4976398;28;20462;-66
2021/05/01 00:32:52;;;;;;;53.33;46.07;;;8.70;99.90;;;;;;4976709;28;20454;-66
2021/05/01 00:35:18;;;;;;;51.53;43.63;;;8.70;99.90;;;;;;4976505;28;20475;-66
2021/05/01 00:37:44;;;;;;;53.43;45.27;;;8.70;99.90;;;;;;4977008;28;20473;-65
2021/05/01 00:40:12;;;;;;;53.90;43.10;;;8.70;99.90;;;;;;4976470;28;20455;-65
2021/05/01 00:42:39;;;;;;;54.33;46.60;;;8.70;99.90;;;;;;4976324;28;20488;-66
2021/05/01 00:45:07;;;;;;;52.33;45.10;;;8.70;99.90;;;;;;4976389;28;20832;-66
2021/05/01 00:47:33;;;;;;;55.30;44.30;;;8.80;99.90;;;;;;4976410;28;20451;-66
2021/05/01 00:49:59;;;;;;;54.67;45.07;;;8.80;99.90;;;;;;4975974;28;20821;-65
2021/05/01 00:52:26;;;;;;;56.43;45.63;;;8.80;99.90;;;;;;4976261;28;20458;-65
2021/05/01 00:54:52;;;;;;;60.70;47.47;;;8.70;99.90;;;;;;4976039;28;20896;-65
2021/05/01 00:57:18;;;;;;;54.67;46.43;;;8.70;99.90;;;;;;4976071;28;20450;-65
2021/05/01 00:59:45;;;;;;;57.57;46.07;;;8.70;99.90;;;;;;4976065;28;20455;-65
2021/05/01 01:02:15;;;;;;;57.07;46.53;;;8.70;99.90;;;;;;4976048;28;20461;-65
2021/05/01 01:04:42;;;;;;;57.23;46.57;;;8.70;99.90;;;;;;4976146;28;20557;-65
2021/05/01 01:07:08;;;;;;;50.40;44.20;;;8.70;99.90;;;;;;4976134;28;20509;-65
2021/05/01 01:09:34;;;;;;;53.80;45.30;;;8.80;99.90;;;;;;4975950;28;20833;-65
2021/05/01 01:12:00;;;;;;;54.20;46.83;;;8.80;99.90;;;;;;4975870;28;20458;-65
2021/05/01 01:14:28;;;;;;;59.17;47.73;;;8.70;99.90;;;;;;4975486;28;20474;-65
2021/05/01 01:16:55;;;;;;;59.47;48.50;;;8.50;99.90;;;;;;4975994;28;20454;-65
2021/05/01 01:19:22;;;;;;;53.07;44.33;;;8.50;99.90;;;;;;4975706;28;20492;-65
2021/05/01 01:21:50;;;;;;;60.70;46.37;;;8.40;99.90;;;;;;4975761;28;20501;-65
2021/05/01 01:24:19;;;;;;;53.90;44.57;;;8.40;99.90;;;;;;4975464;28;20523;-65
2021/05/01 01:26:46;;;;;;;53.93;45.77;;;8.50;99.90;;;;;;4975625;28;20455;-65
2021/05/01 01:29:14;;;;;;;57.47;46.40;;;8.60;99.90;;;;;;4975656;28;20869;-65
2021/05/01 01:31:41;;;;;;;54.20;44.70;;;8.50;99.90;;;;;;4975632;28;20865;-65
2021/05/01 01:34:07;;;;;;;55.57;44.63;;;8.40;99.90;;;;;;4975498;28;20478;-65
2021/05/01 01:36:33;;;;;;;55.00;45.87;;;8.40;99.90;;;;;;4974609;28;20447;-65
2021/05/01 01:39:02;;;;;;;55.67;45.80;;;8.30;99.90;;;;;;4975933;28;20454;-65
2021/05/01 01:41:29;;;;;;;58.73;48.10;;;8.30;99.90;;;;;;4976101;28;20526;-65
2021/05/01 01:43:55;;;;;;;57.33;46.40;;;8.30;99.90;;;;;;4974565;28;20981;-65
2021/05/01 01:46:22;;;;;;;57.77;45.73;;;8.30;99.90;;;;;;4975292;28;20461;-66
2021/05/01 01:48:48;;;;;;;54.33;44.93;;;8.30;99.90;;;;;;4975435;28;20511;-65
2021/05/01 01:51:14;;;;;;;55.37;45.30;;;8.30;99.90;;;;;;4975353;28;20455;-65
2021/05/01 01:53:40;;;;;;;60.00;45.63;;;8.30;99.90;;;;;;4975179;28;20454;-64
2021/05/01 01:56:07;;;;;;;58.30;45.17;;;8.30;99.90;;;;;;4975226;28;20455;-65
2021/05/01 01:58:34;;;;;;;55.53;44.40;;;8.20;99.90;;;;;;4974921;28;20945;-65
2021/05/01 02:01:01;;;;;;;55.90;45.73;;;8.30;99.90;;;;;;4975188;28;20455;-64
2021/05/01 02:03:27;;;;;;;55.73;45.97;;;8.30;99.90;;;;;;4975661;28;20474;-64
2021/05/01 02:05:53;;;;;;;54.47;45.00;;;8.30;99.90;;;;;;4975150;28;20450;-64
2021/05/01 02:08:19;;;;;;;58.03;44.70;;;8.30;99.90;;;;;;4974932;28;20485;-65
2021/05/01 02:10:45;;;;;;;55.67;45.77;;;8.20;99.90;;;;;;4975041;28;20463;-65
2021/05/01 02:13:12;;;;;;;56.80;45.10;;;8.20;99.90;;;;;;4974982;28;20455;-65
2021/05/01 02:15:39;;;;;;;47.23;40.37;;;8.30;99.90;;;;;;4974564;28;20988;-65
2021/05/01 02:18:05;;;;;;;48.00;40.23;;;8.30;99.90;;;;;;4973997;28;20459;-65
2021/05/01 02:20:34;;;;;;;52.13;40.97;;;8.30;99.90;;;;;;4974911;28;20612;-65
2021/05/01 02:23:00;;;;;;;52.70;41.90;;;8.20;99.90;;;;;;4974698;28;20489;-65
2021/05/01 02:25:27;;;;;;;54.90;41.03;;;8.10;99.90;;;;;;4974779;28;20478;-65
2021/05/01 02:27:54;;;;;;;54.30;43.57;;;8.00;99.90;;;;;;4974949;28;20458;-65
2021/05/01 02:30:22;;;;;;;58.57;46.33;;;8.00;99.90;;;;;;4974776;28;20462;-65
2021/05/01 02:32:53;;;;;;;70.30;52.23;;;8.10;99.90;;;;;;4974727;28;20454;-65
2021/05/01 02:35:21;;;;;;;75.67;56.70;;;8.00;99.90;;;;;;4974756;28;20471;-65
2021/05/01 02:37:48;;;;;;;71.33;54.30;;;7.90;99.90;;;;;;4975276;28;20459;-65
2021/05/01 02:40:16;;;;;;;70.43;52.07;;;7.90;99.90;;;;;;4974405;28;20971;-65
2021/05/01 02:42:43;;;;;;;71.00;54.43;;;7.90;99.90;;;;;;4975008;28;20455;-65
2021/05/01 02:45:12;;;;;;;81.23;55.50;;;7.70;99.90;;;;;;4974428;28;20478;-65
2021/05/01 02:47:38;;;;;;;75.77;55.00;;;7.70;99.90;;;;;;4974445;28;20575;-65
2021/05/01 02:50:08;;;;;;;74.37;52.10;;;7.70;99.90;;;;;;4974370;28;20945;-66
2021/05/01 02:52:34;;;;;;;72.27;51.37;;;7.70;99.90;;;;;;4975666;28;20513;-66
2021/05/01 02:55:00;;;;;;;71.70;51.50;;;7.70;99.90;;;;;;4975118;28;20553;-66
2021/05/01 02:57:27;;;;;;;69.27;49.60;;;7.80;99.90;;;;;;4974927;28;20465;-66
2021/05/01 02:59:53;;;;;;;68.07;49.87;;;7.80;99.90;;;;;;4974554;28;20482;-66
2021/05/01 03:02:19;;;;;;;72.40;53.40;;;7.80;99.90;;;;;;4974435;28;20460;-65
2021/05/01 03:04:45;;;;;;;77.40;53.40;;;7.80;99.90;;;;;;4973946;28;20544;-66
2021/05/01 03:07:12;;;;;;;77.37;54.20;;;7.70;99.90;;;;;;4974446;28;20470;-65
2021/05/01 03:09:38;;;;;;;85.13;54.13;;;7.80;99.90;;;;;;4974436;28;20803;-65
2021/05/01 03:12:05;;;;;;;83.30;56.87;;;7.70;99.90;;;;;;4974464;28;20455;-65
2021/05/01 03:14:31;;;;;;;81.67;55.80;;;7.80;99.90;;;;;;4974441;28;20474;-65
2021/05/01 03:16:58;;;;;;;79.70;57.00;;;7.80;99.90;;;;;;4974242;28;20968;-65
2021/05/01 03:19:24;;;;;;;84.97;57.03;;;7.80;99.90;;;;;;4974493;28;20458;-65
2021/05/01 03:21:50;;;;;;;84.80;54.60;;;7.80;99.90;;;;;;4974394;28;20455;-65
2021/05/01 03:24:17;;;;;;;80.10;53.67;;;7.70;99.90;;;;;;4974113;28;20498;-65
2021/05/01 03:26:43;;;;;;;76.83;49.13;;;7.60;99.90;;;;;;4974176;28;20462;-67
2021/05/01 03:29:10;;;;;;;69.97;49.20;;;7.50;99.90;;;;;;4974947;28;20454;-66
2021/05/01 03:31:37;;;;;;;69.83;49.77;;;7.50;99.90;;;;;;4977556;28;21027;-67
2021/05/01 03:34:04;;;;;;;68.27;46.83;;;7.50;99.90;;;;;;4977621;28;20470;-64
2021/05/01 03:36:30;;;;;;;71.80;49.37;;;7.50;99.90;;;;;;4977645;28;20462;-67
2021/05/01 03:38:56;;;;;;;79.30;51.27;;;7.50;99.90;;;;;;4977620;28;20487;-67
2021/05/01 03:41:23;;;;;;;82.80;54.90;;;7.40;99.90;;;;;;4977688;28;20454;-67
2021/05/01 03:43:49;;;;;;;85.57;56.40;;;7.40;99.90;;;;;;4977489;28;20510;-67
2021/05/01 03:46:16;;;;;;;70.90;50.13;;;7.30;99.90;;;;;;4977485;28;20462;-66
2021/05/01 03:48:42;;;;;;;71.60;50.27;;;7.30;99.90;;;;;;4977035;28;20975;-66
2021/05/01 03:51:08;;;;;;;72.13;52.23;;;7.20;99.90;;;;;;4977541;28;20458;-66
2021/05/01 03:53:34;;;;;;;71.57;50.33;;;7.20;99.90;;;;;;4977366;28;20454;-66
2021/05/01 03:56:01;;;;;;;73.37;52.47;;;7.20;99.90;;;;;;4977521;28;20458;-66
2021/05/01 03:58:28;;;;;;;77.17;52.30;;;7.30;99.90;;;;;;4977528;28;20455;-66
2021/05/01 04:00:54;;;;;;;71.43;52.47;;;7.30;99.90;;;;;;4978330;28;20462;-66
2021/05/01 04:03:20;;;;;;;74.13;51.73;;;7.30;99.90;;;;;;4979029;28;20478;-66
2021/05/01 04:05:46;;;;;;;78.70;54.23;;;7.30;99.90;;;;;;4978730;28;20482;-66
2021/05/01 04:08:13;;;;;;;72.10;52.03;;;7.30;99.90;;;;;;4978179;28;20459;-66
2021/05/01 04:10:39;;;;;;;73.33;50.53;;;7.20;99.90;;;;;;4977494;28;20477;-66
2021/05/01 04:13:05;;;;;;;75.70;51.70;;;7.20;99.90;;;;;;4977226;28;20454;-66
2021/05/01 04:15:32;;;;;;;71.17;50.53;;;7.30;99.90;;;;;;4977078;28;20482;-66
2021/05/01 04:17:58;;;;;;;72.17;52.70;;;7.30;99.90;;;;;;4977317;28;20505;-66
2021/05/01 04:20:25;;;;;;;71.40;51.90;;;7.40;99.90;;;;;;4976826;28;20462;-66
2021/05/01 04:22:51;;;;;;;70.10;51.60;;;7.50;99.90;;;;;;4977114;28;20451;-66
2021/05/01 04:25:18;;;;;;;72.33;51.20;;;7.60;99.90;;;;;;4977078;28;20478;-66
2021/05/01 04:27:44;;;;;;;70.87;51.67;;;7.60;99.90;;;;;;4977192;28;20451;-66
2021/05/01 04:30:12;;;;;;;71.47;50.47;;;7.60;99.90;;;;;;4977159;28;20455;-66
2021/05/01 04:32:39;;;;;;;72.77;53.10;;;7.50;99.90;;;;;;4977222;28;20513;-66
2021/05/01 04:35:07;;;;;;;69.83;48.70;;;7.60;99.90;;;;;;4976915;28;20481;-66
2021/05/01 04:37:33;;;;;;;63.27;47.73;;;7.60;99.90;;;;;;4976442;28;20539;-66
2021/05/01 04:39:59;;;;;;;60.63;45.30;;;7.60;99.90;;;;;;4976816;28;20861;-66
2021/05/01 04:42:25;;;;;;;51.87;41.60;;;7.70;99.90;;;;;;4976055;28;20459;-67
2021/05/01 04:44:52;;;;;;;54.67;42.80;;;7.80;99.90;;;;;;4976685;28;20482;-66
2021/05/01 04:47:18;;;;;;;59.93;39.00;;;7.80;99.90;;;;;;4976693;28;20462;-67
2021/05/01 04:49:46;;;;;;;109.23;41.17;;;7.80;99.90;;;;;;4976311;28;20462;-65
2021/05/01 04:52:12;;;;;;;67.83;38.60;;;7.70;99.90;;;;;;4976236;28;20550;-65
2021/05/01 04:54:39;;;;;;;92.40;39.87;;;7.70;99.90;;;;;;4976639;28;20475;-66
2021/05/01 04:57:06;;;;;;;111.10;41.17;;;7.70;99.90;;;;;;4976522;28;20486;-65
2021/05/01 04:59:32;;;;;;;232.13;43.37;;;7.70;99.90;;;;;;4976236;28;20995;-67
2021/05/01 05:01:58;;;;;;;120.63;41.47;;;7.70;99.90;;;;;;4976236;28;20465;-67
2021/05/01 05:04:24;;;;;;;250.60;43.07;;;7.70;99.90;;;;;;4975866;28;20510;-66
2021/05/01 05:06:51;;;;;;;471.50;50.70;;;7.80;99.90;;;;;;4976258;28;20820;-65
2021/05/01 05:09:17;;;;;;;341.93;46.00;;;7.70;99.90;;;;;;4975899;28;20970;-66
2021/05/01 05:11:44;;;;;;;316.63;48.50;;;7.80;99.90;;;;;;4976283;28;20442;-65
2021/05/01 05:14:10;;;;;;;159.13;42.33;;;7.80;99.90;;;;;;4976196;28;20495;-64
2021/05/01 05:16:36;;;;;;;130.77;43.60;;;7.70;99.90;;;;;;4975999;28;20957;-65
2021/05/01 05:19:03;;;;;;;188.50;43.80;;;7.80;99.90;;;;;;4976481;28;20463;-65
2021/05/01 05:21:29;;;;;;;74.33;40.40;;;7.80;99.90;;;;;;4975887;28;20922;-65
2021/05/01 05:23:56;;;;;;;321.00;44.20;;;7.70;99.90;;;;;;4975801;28;21016;-65
2021/05/01 05:26:23;;;;;;;72.00;39.50;;;7.70;99.90;;;;;;4976241;28;20462;-65
2021/05/01 05:28:49;;;;;;;82.77;43.70;;;7.80;99.90;;;;;;4976023;28;20828;-65
2021/05/01 05:31:15;;;;;;;160.50;47.23;;;7.90;99.90;;;;;;4975795;28;20459;-66
2021/05/01 05:33:42;;;;;;;118.43;40.97;;;7.90;99.90;;;;;;4976015;28;20454;-65
2021/05/01 05:36:08;;;;;;;73.67;38.30;;;8.00;99.90;;;;;;4976132;28;20462;-65
2021/05/01 05:38:34;;;;;;;124.27;41.50;;;8.10;99.90;;;;;;4975480;28;20458;-65
2021/05/01 05:41:01;;;;;;;95.30;42.00;;;7.90;99.90;;;;;;4975566;28;20821;-65
2021/05/01 05:43:28;;;;;;;84.43;40.27;;;8.00;99.90;;;;;;4975207;28;20482;-65
2021/05/01 05:45:55;;;;;;;115.20;44.60;;;8.10;99.90;;;;;;4975554;28;20458;-65
2021/05/01 05:48:22;;;;;;;56.57;41.50;;;7.90;99.90;;;;;;4975487;28;20462;-65
2021/05/01 05:50:48;;;;;;;84.50;43.40;;;8.00;99.90;;;;;;4975423;28;20542;-65
2021/05/01 05:53:14;;;;;;;82.50;41.57;;;8.20;99.90;;;;;;4974286;28;20485;-66
2021/05/01 05:55:41;;;;;;;57.90;40.07;;;8.30;99.90;;;;;;4975162;28;20555;-65
2021/05/01 05:58:08;;;;;;;51.37;39.60;;;8.40;99.90;;;;;;4975280;28;20458;-65
2021/05/01 06:00:35;;;;;;;51.67;40.33;;;8.60;99.90;;;;;;4975210;28;20455;-67
2021/05/01 06:03:02;;;;;;;51.43;36.87;;;8.80;99.90;;;;;;4975301;28;20597;-65
2021/05/01 06:05:29;;;;;;;89.93;40.67;;;8.90;99.90;;;;;;4974976;28;20989;-65
2021/05/01 06:07:59;;;;;;;45.97;37.63;;;9.00;99.90;;;;;;4975299;28;20477;-65
2021/05/01 06:10:26;;;;;;;55.23;39.07;;;9.10;99.90;;;;;;4975254;28;20533;-65
2021/05/01 06:12:53;;;;;;;79.90;40.87;;;9.10;99.90;;;;;;4975051;28;20481;-65
2021/05/01 06:15:20;;;;;;;64.77;39.23;;;9.00;99.90;;;;;;4974997;28;20480;-64
2021/05/01 06:17:48;;;;;;;73.93;41.50;;;9.00;99.90;;;;;;4975287;28;20513;-65
2021/05/01 06:20:15;;;;;;;54.13;39.10;;;8.90;99.90;;;;;;4975250;28;20459;-65
2021/05/01 06:22:42;;;;;;;56.63;40.23;;;8.90;99.90;;;;;;4975147;28;20465;-65
2021/05/01 06:25:11;;;;;;;49.20;39.30;;;9.10;99.90;;;;;;4974740;28;20541;-64
2021/05/01 06:27:37;;;;;;;49.03;39.87;;;9.10;99.90;;;;;;4975117;28;20458;-64
2021/05/01 06:30:05;;;;;;;45.00;38.23;;;9.20;99.90;;;;;;4975417;28;20458;-64
2021/05/01 06:32:32;;;;;;;46.97;38.40;;;9.40;99.90;;;;;;4975145;28;20459;-64
2021/05/01 06:35:00;;;;;;;44.13;37.00;;;9.50;99.90;;;;;;4974919;28;20475;-64
2021/05/01 06:37:27;;;;;;;48.60;39.70;;;9.60;99.90;;;;;;4974940;28;20454;-64
2021/05/01 06:39:56;;;;;;;47.90;39.70;;;9.60;99.90;;;;;;4974932;28;20458;-64
2021/05/01 06:42:25;;;;;;;43.90;38.87;;;9.90;99.90;;;;;;4974974;28;20454;-63
2021/05/01 06:44:56;;;;;;;43.40;38.67;;;10.10;99.90;;;;;;4974831;28;20493;-64
2021/05/01 06:47:25;;;;;;;43.53;37.17;;;10.20;99.90;;;;;;4975188;28;20788;-64
2021/05/01 06:50:07;;;;;;;44.77;39.00;;;10.40;99.90;;;;;;4975009;28;20458;-63
2021/05/01 06:52:37;;;;;;;44.57;39.10;;;10.40;99.90;;;;;;4974595;28;20932;-63
2021/05/01 06:55:05;;;;;;;41.57;37.13;;;10.50;99.90;;;;;;4974750;28;20479;-63
2021/05/01 06:57:32;;;;;;;42.13;37.63;;;10.40;99.90;;;;;;4974905;28;20470;-63
2021/05/01 07:00:00;;;;;;;44.27;36.80;;;10.50;99.90;;;;;;4974984;28;20455;-63
2021/05/01 07:02:28;;;;;;;42.37;35.77;;;10.40;99.90;;;;;;4974807;28;20461;-64
2021/05/01 07:04:57;;;;;;;44.37;38.60;;;10.60;99.90;;;;;;4976560;28;20905;-64
2021/05/01 07:07:26;;;;;;;40.97;36.43;;;10.80;99.90;;;;;;4978357;28;20458;-64
2021/05/01 07:09:52;;;;;;;40.43;36.13;;;10.80;99.90;;;;;;4979094;28;20454;-63
2021/05/01 07:12:20;;;;;;;36.00;32.20;;;11.10;99.90;;;;;;4979135;28;21001;-63
2021/05/01 07:14:47;;;;;;;32.30;29.03;;;11.30;99.90;;;;;;4978409;28;20478;-63
2021/05/01 07:17:14;;;;;;;34.33;29.53;;;11.60;99.90;;;;;;4978238;28;20454;-64
2021/05/01 07:19:41;;;;;;;31.57;28.33;;;11.40;99.90;;;;;;4978388;28;20462;-63
2021/05/01 07:22:08;;;;;;;33.30;30.00;;;11.60;99.90;;;;;;4978619;28;20469;-65
2021/05/01 07:24:35;;;;;;;33.30;29.90;;;11.70;99.90;;;;;;4978142;28;20478;-64
2021/05/01 07:27:02;;;;;;;35.80;32.20;;;11.80;99.90;;;;;;4978120;28;20485;-64
2021/05/01 07:29:34;;;;;;;33.63;30.17;;;11.60;99.90;;;;;;4977752;28;20819;-64
2021/05/01 07:32:02;;;;;;;33.97;29.10;;;11.70;99.90;;;;;;4977848;28;20948;-64
2021/05/01 07:34:29;;;;;;;33.97;30.37;;;11.60;99.90;;;;;;4977863;28;20525;-64
2021/05/01 07:37:01;;;;;;;31.00;27.63;;;11.70;99.90;;;;;;4977848;28;20458;-63
2021/05/01 07:39:30;;;;;;;31.80;28.50;;;11.70;99.90;;;;;;4977684;28;20443;-64
2021/05/01 07:41:59;;;;;;;32.73;29.33;;;11.40;99.90;;;;;;4977598;28;20458;-63
2021/05/01 07:44:27;;;;;;;33.80;30.37;;;11.30;99.90;;;;;;4978183;28;20492;-64
2021/05/01 07:46:53;;;;;;;35.40;31.73;;;10.90;99.90;;;;;;4977667;28;20465;-63
2021/05/01 07:49:20;;;;;;;38.10;33.07;;;11.00;99.90;;;;;;4977678;28;20458;-65
2021/05/01 07:51:46;;;;;;;36.47;31.53;;;11.00;99.90;;;;;;4977372;28;20982;-64
2021/05/01 07:54:12;;;;;;;35.83;32.17;;;10.70;99.90;;;;;;4977464;28;20475;-64
2021/05/01 07:56:39;;;;;;;35.80;32.10;;;10.60;99.90;;;;;;4977722;28;20455;-64
2021/05/01 07:59:07;;;;;;;35.77;31.97;;;10.70;99.90;;;;;;4977476;28;20546;-64
2021/05/01 08:01:34;;;;;;;34.80;31.30;;;10.70;99.90;;;;;;4977443;28;20454;-64
2021/05/01 08:04:00;;;;;;;32.90;29.43;;;10.90;99.90;;;;;;4977012;28;20590;-64
2021/05/01 08:06:27;;;;;;;35.27;31.47;;;11.10;99.90;;;;;;4977269;28;20450;-63
2021/05/01 08:08:54;;;;;;;34.30;30.73;;;11.10;99.90;;;;;;4977077;28;20505;-63
2021/05/01 08:11:21;;;;;;;34.43;30.93;;;11.00;99.90;;;;;;4977095;28;20462;-64
2021/05/01 08:13:47;;;;;;;35.53;31.87;;;10.80;99.90;;;;;;4977290;28;20474;-65
2021/05/01 08:16:15;;;;;;;35.50;31.77;;;10.80;99.90;;;;;;4976151;28;20455;-64
2021/05/01 08:18:41;;;;;;;35.83;32.20;;;10.90;99.90;;;;;;4977047;28;20550;-63
2021/05/01 08:21:08;;;;;;;34.40;30.70;;;10.90;99.90;;;;;;4976883;28;20458;-63
2021/05/01 08:23:34;;;;;;;35.77;32.07;;;10.90;99.90;;;;;;4976654;28;20482;-63
2021/05/01 08:26:00;;;;;;;36.43;32.77;;;10.90;99.90;;;;;;4976882;28;20454;-63
2021/05/01 08:28:27;;;;;;;35.87;32.13;;;10.90;99.90;;;;;;4976889;28;20459;-63
2021/05/01 08:30:54;;;;;;;36.53;32.73;;;10.70;99.90;;;;;;4976546;28;20460;-63
2021/05/01 08:33:21;;;;;;;37.23;33.40;;;10.80;99.90;;;;;;4976510;28;20960;-64
2021/05/01 08:35:47;;;;;;;37.03;33.20;;;10.90;99.90;;;;;;4976460;28;20482;-63
2021/05/01 08:38:13;;;;;;;36.07;32.27;;;10.90;99.90;;;;;;4976562;28;20454;-66
2021/05/01 08:40:40;;;;;;;39.37;34.43;;;10.80;99.90;;;;;;4976244;28;20818;-65
2021/05/01 08:43:07;;;;;;;39.23;34.23;;;10.70;99.90;;;;;;4976721;28;20517;-64
2021/05/01 08:45:33;;;;;;;37.60;33.70;;;10.70;99.90;;;;;;4976679;28;20475;-63
2021/05/01 08:48:01;;;;;;;38.13;33.93;;;10.70;99.90;;;;;;4976916;28;20485;-65
2021/05/01 08:50:37;;;;;;;41.50;34.80;;;10.70;99.90;;;;;;4977055;28;20450;-63
2021/05/01 08:53:03;;;;;;;38.10;34.10;;;10.60;99.90;;;;;;4976696;28;20445;-64
2021/05/01 08:55:34;;;;;;;36.90;33.07;;;10.60;99.90;;;;;;4976202;28;20475;-64
2021/05/01 08:58:00;;;;;;;38.53;34.50;;;10.60;99.90;;;;;;4976502;28;20469;-63
2021/05/01 09:00:27;;;;;;;35.80;32.20;;;10.60;99.90;;;;;;4976163;28;20942;-63
2021/05/01 09:02:53;;;;;;;34.60;31.00;;;10.80;99.90;;;;;;4975820;28;20981;-63
2021/05/01 09:05:23;;;;;;;38.00;33.37;;;11.00;99.90;;;;;;4975504;28;20510;-63
2021/05/01 09:07:51;;;;;;;36.53;32.67;;;11.20;99.90;;;;;;4976112;28;20481;-63
2021/05/01 09:10:17;;;;;;;35.73;32.23;;;11.30;99.90;;;;;;4976229;28;20454;-63
2021/05/01 09:12:45;;;;;;;35.30;31.00;;;11.20;99.90;;;;;;4976087;28;20860;-63
2021/05/01 09:15:17;;;;;;;34.67;31.07;;;11.20;99.90;;;;;;4976128;28;20470;-63
2021/05/01 09:17:45;;;;;;;35.73;31.93;;;11.30;99.90;;;;;;4976943;28;20443;-64
2021/05/01 09:20:14;;;;;;;36.90;33.10;;;11.20;99.90;;;;;;4976821;28;20454;-65
2021/05/01 09:22:56;;;;;;;39.47;35.43;;;11.40;99.90;;;;;;4976532;28;20845;-63
2021/05/01 09:25:24;;;;;;;37.87;33.83;;;11.10;99.90;;;;;;4976456;28;20521;-64
2021/05/01 09:28:09;;;;;;;37.77;32.73;;;11.40;99.90;;;;;;4976524;28;20599;-63
2021/05/01 09:30:38;;;;;;;38.47;34.47;;;11.50;99.90;;;;;;4976322;28;20471;-63
2021/05/01 09:33:25;;;;;;;38.50;34.33;;;11.50;99.90;;;;;;4975969;28;20459;-64
2021/05/01 09:36:01;;;;;;;37.07;33.37;;;11.60;99.90;;;;;;4976100;28;20453;-65
2021/05/01 09:38:37;;;;;;;38.13;34.13;;;11.90;99.90;;;;;;4976201;28;20458;-65
2021/05/01 09:41:11;;;;;;;36.50;32.80;;;12.10;99.90;;;;;;4976306;28;20439;-63
2021/05/01 09:43:53;;;;;;;34.60;31.20;;;12.10;99.90;;;;;;4975919;28;20470;-64
2021/05/01 09:46:19;;;;;;;38.10;34.33;;;12.10;99.90;;;;;;4976654;28;20792;-63
2021/05/01 09:49:02;;;;;;;33.93;30.43;;;12.20;99.90;;;;;;4976567;28;20443;-64
2021/05/01 09:51:32;;;;;;;36.20;32.50;;;12.30;99.90;;;;;;4976125;28;20481;-63
2021/05/01 09:53:59;;;;;;;38.43;34.20;;;12.20;99.90;;;;;;4975808;28;20475;-65
2021/05/01 09:56:28;;;;;;;32.87;29.60;;;12.20;99.90;;;;;;4975885;28;20443;-63
2021/05/01 09:58:55;;;;;;;34.80;31.30;;;12.30;99.90;;;;;;4976131;28;20446;-65
2021/05/01 10:01:21;;;;;;;34.20;30.87;;;12.50;99.90;;;;;;4975673;28;20454;-64
2021/05/01 10:03:47;;;;;;;34.77;31.27;;;12.60;99.90;;;;;;4975504;28;20494;-65
2021/05/01 10:06:17;;;;;;;33.50;30.20;;;12.80;99.90;;;;;;4976231;28;20439;-64
2021/05/01 10:08:52;;;;;;;34.97;31.47;;;12.60;99.90;;;;;;4975861;28;20518;-64
2021/05/01 10:11:23;;;;;;;35.43;31.80;;;12.50;99.90;;;;;;4975860;28;20922;-63
2021/05/01 10:13:50;;;;;;;35.60;32.03;;;12.50;99.90;;;;;;4976149;28;20471;-64
2021/05/01 10:16:17;;;;;;;37.47;33.70;;;12.60;99.90;;;;;;4975875;28;20862;-63
2021/05/01 10:19:07;;;;;;;35.03;31.40;;;12.50;99.90;;;;;;4975896;28;20462;-65
2021/05/01 10:21:35;;;;;;;38.33;32.80;;;12.50;99.90;;;;;;4975736;28;20439;-65
2021/05/01 10:24:01;;;;;;;35.90;32.00;;;12.20;99.90;;;;;;4975539;28;20514;-66
2021/05/01 10:26:41;;;;;;;36.90;33.23;;;12.20;99.90;;;;;;4975334;28;20942;-64
2021/05/01 10:29:08;;;;;;;38.47;34.53;;;12.40;99.90;;;;;;4975951;28;20803;-65
2021/05/01 10:31:45;;;;;;;40.23;34.27;;;12.40;99.90;;;;;;4975435;28;20458;-65
2021/05/01 10:34:12;;;;;;;36.77;33.00;;;12.40;99.90;;;;;;4975531;28;20497;-65
2021/05/01 10:36:43;;;;;;;38.37;34.23;;;12.40;99.90;;;;;;4975938;28;20466;-68
2021/05/01 10:39:10;;;;;;;35.77;32.07;;;12.40;99.90;;;;;;4976134;28;20918;-64
2021/05/01 10:41:38;;;;;;;39.37;35.40;;;12.40;99.90;;;;;;4979674;28;20484;-66
2021/05/01 10:44:06;;;;;;;37.73;34.03;;;12.40;99.90;;;;;;4979393;28;20522;-64
2021/05/01 10:46:34;;;;;;;36.47;32.87;;;12.70;99.90;;;;;;4979688;28;20455;-66
2021/05/01 10:49:03;;;;;;;33.80;30.43;;;13.00;99.90;;;;;;4979460;28;20458;-67
2021/05/01 10:51:35;;;;;;;35.83;32.40;;;13.50;99.90;;;;;;4979215;28;20881;-65
2021/05/01 10:54:09;;;;;;;35.00;31.50;;;13.90;99.90;;;;;;4979626;28;20485;-64
2021/05/01 10:56:38;;;;;;;35.37;31.90;;;14.30;99.90;;;;;;4979057;28;21011;-64
2021/05/01 10:59:08;;;;;;;34.30;30.70;;;14.50;99.90;;;;;;4983411;28;20505;-64
2021/05/01 11:01:37;;;;;;;35.27;31.87;;;14.40;99.90;;;;;;4979261;28;20486;-63
2021/05/01 11:04:06;;;;;;;36.93;33.13;;;14.40;99.90;;;;;;4978667;28;20555;-66
2021/05/01 11:06:39;;;;;;;37.13;33.37;;;14.10;99.90;;;;;;4979129;28;20533;-65
2021/05/01 11:09:06;;;;;;;34.20;30.70;;;14.20;99.90;;;;;;4979147;28;20490;-65
2021/05/01 11:11:36;;;;;;;38.13;34.10;;;13.80;99.90;;;;;;4979234;28;21038;-65
2021/05/01 11:14:14;;;;;;;32.77;29.47;;;13.80;99.90;;;;;;4986385;28;20474;-65
2021/05/01 11:16:49;;;;;;;33.33;29.90;;;13.90;99.90;;;;;;4992103;28;20469;-65
2021/05/01 11:19:19;;;;;;;38.03;34.33;;;13.90;99.90;;;;;;4992303;28;20446;-65
2021/05/01 11:21:46;;;;;;;37.60;33.70;;;13.70;99.90;;;;;;4991060;28;20865;-65
2021/05/01 11:24:14;;;;;;;34.97;31.70;;;13.30;99.90;;;;;;4990651;28;20513;-65
2021/05/01 11:26:43;;;;;;;38.17;34.37;;;13.20;99.90;;;;;;4991224;28;20454;-65
2021/05/01 11:29:12;;;;;;;36.73;32.83;;;13.20;99.90;;;;;;4991778;28;20438;-65
2021/05/01 11:31:41;;;;;;;36.63;32.90;;;13.20;99.90;;;;;;4992264;28;20455;-65
2021/05/01 11:34:09;;;;;;;34.47;31.10;;;13.10;99.90;;;;;;4990563;28;20474;-65
2021/05/01 11:36:45;;;;;;;35.33;31.83;;;13.10;99.90;;;;;;4981318;28;20816;-66
2021/05/01 11:39:13;;;;;;;34.97;31.27;;;13.20;99.90;;;;;;4981037;28;20946;-65
2021/05/01 11:41:44;;;;;;;34.10;30.67;;;13.50;99.90;;;;;;4980292;28;20454;-65
2021/05/01 11:44:12;;;;;;;36.30;32.80;;;13.40;99.90;;;;;;4979884;28;20493;-65
2021/05/01 11:46:44;;;;;;;36.70;32.90;;;13.30;99.90;;;;;;4980110;28;20868;-65
2021/05/01 11:49:10;;;;;;;36.30;32.57;;;13.30;99.90;;;;;;4980119;28;20435;-65
2021/05/01 11:51:56;;;;;;;38.87;34.67;;;13.20;99.90;;;;;;4983906;28;20470;-66
2021/05/01 11:54:35;;;;;;;36.90;33.27;;;13.30;99.90;;;;;;4984579;28;20470;-64
2021/05/01 11:57:12;;;;;;;35.33;31.60;;;13.00;99.90;;;;;;4983713;28;20450;-66
2021/05/01 11:59:44;;;;;;;34.93;31.47;;;12.90;99.90;;;;;;4981386;28;20461;-65
2021/05/01 12:02:11;;;;;;;35.37;31.77;;;12.70;99.90;;;;;;4979613;28;20800;-65
2021/05/01 12:04:47;;;;;;;35.50;31.80;;;12.80;99.90;;;;;;4978151;28;21064;-65
2021/05/01 12:07:18;;;;;;;33.73;30.43;;;12.60;99.90;;;;;;4978656;28;20434;-65
2021/05/01 12:09:47;;;;;;;35.57;32.13;;;12.60;99.90;;;;;;4978878;28;20447;-66
2021/05/01 12:12:16;;;;;;;34.80;31.30;;;12.70;99.90;;;;;;4979289;28;20466;-64
2021/05/01 12:14:46;;;;;;;33.97;30.63;;;12.70;99.90;;;;;;4978540;28;20475;-65
2021/05/01 12:17:14;;;;;;;34.90;31.40;;;12.80;99.90;;;;;;4978118;28;20443;-65
2021/05/01 12:19:42;;;;;;;35.13;31.40;;;12.90;99.90;;;;;;4977301;28;20941;-66
2021/05/01 12:22:28;;;;;;;36.07;32.60;;;13.10;99.90;;;;;;4978676;28;20481;-64
2021/05/01 12:24:55;;;;;;;36.07;32.37;;;13.20;99.90;;;;;;4986833;28;20482;-64
2021/05/01 12:27:47;;;;;;;34.57;31.10;;;13.30;99.90;;;;;;4992517;28;20455;-64
2021/05/01 12:30:47;;;;;;;34.93;31.27;;;13.20;99.90;;;;;;4984903;28;20500;-64
2021/05/01 12:33:49;;;;;;;33.63;30.30;;;13.20;99.90;;;;;;4976286;28;20439;-65
2021/05/01 12:36:18;;;;;;;32.27;29.03;;;13.00;99.90;;;;;;4977124;28;20435;-66